Time;durP1;ratioP1;P1;durP2;ratioP2;P2;SDS_P1;SDS_P2;PMS_P1;PMS_P2;Temp;Humidity;BMP_temperature;BMP_pressure;BME280_temperature;BME280_humidity;BME280_pressure;Samples;Min_cycle;Max_cycle;Signal;HPM_P1;HPM_P2
2023/07/29 00:01:34;;;;;;;;;;;26.00;52.40;;;;;;5116420;28;19982;-56
2023/07/29 00:04:01;;;;;;;;;;;26.00;52.40;;;;;;5116813;28;20372;-56
2023/07/29 00:06:28;;;;;;;;;;;26.00;52.40;;;;;;5116877;28;20301;-54
2023/07/29 00:08:55;;;;;;;;;;;26.00;52.40;;;;;;5115914;28;19977;-56
2023/07/29 00:11:22;;;;;;;;;;;26.00;52.50;;;;;;5116760;28;19927;-55
2023/07/29 00:13:50;;;;;;;;;;;26.00;52.40;;;;;;5116179;28;20022;-56
2023/07/29 00:16:17;;;;;;;;;;;25.90;52.40;;;;;;5116197;28;19975;-57
2023/07/29 00:18:44;;;;;;;;;;;26.00;52.50;;;;;;5115853;28;19924;-57
2023/07/29 00:21:11;;;;;;;;;;;25.90;52.40;;;;;;5116444;28;20040;-55
2023/07/29 00:23:38;;;;;;;;;;;25.90;52.50;;;;;;5116034;28;19932;-56
2023/07/29 00:26:05;;;;;;;;;;;25.90;52.40;;;;;;5114522;28;19924;-56
2023/07/29 00:28:32;;;;;;;;;;;25.90;52.50;;;;;;5115850;28;19934;-56
2023/07/29 00:30:59;;;;;;;;;;;25.90;52.50;;;;;;5114879;28;20326;-57
2023/07/29 00:33:26;;;;;;;;;;;25.90;52.50;;;;;;5105865;28;20388;-56
2023/07/29 00:35:53;;;;;;;;;;;25.90;52.50;;;;;;5094668;28;19924;-57
2023/07/29 00:38:20;;;;;;;;;;;25.90;52.50;;;;;;5096237;28;19974;-55
2023/07/29 00:40:47;;;;;;;;;;;25.90;52.50;;;;;;5095947;28;20006;-57
2023/07/29 00:43:14;;;;;;;;;;;25.90;52.50;;;;;;5095425;28;19923;-57
2023/07/29 00:45:42;;;;;;;;;;;25.90;52.50;;;;;;5095193;28;19931;-56
2023/07/29 00:48:09;;;;;;;;;;;25.90;52.60;;;;;;5095555;28;19978;-57
2023/07/29 00:50:37;;;;;;;;;;;25.90;52.60;;;;;;5096045;28;19923;-56
2023/07/29 00:53:04;;;;;;;;;;;25.90;52.60;;;;;;5094998;28;19924;-56
2023/07/29 00:55:31;;;;;;;;;;;25.90;52.60;;;;;;5095030;28;20440;-58
2023/07/29 00:57:58;;;;;;;;;;;25.90;52.60;;;;;;5094807;28;20403;-57
2023/07/29 01:00:25;;;;;;;;;;;25.80;52.60;;;;;;5095571;28;19964;-57
2023/07/29 01:02:54;;;;;;;;;;;25.90;52.60;;;;;;5094925;28;20023;-55
2023/07/29 01:05:22;;;;;;;;;;;25.90;52.60;;;;;;5095506;28;19973;-56
2023/07/29 01:07:54;;;;;;;;;;;25.90;52.70;;;;;;5094858;28;19977;-56
2023/07/29 01:10:39;;;;;;;;;;;25.90;52.70;;;;;;5094722;28;19978;-57
2023/07/29 01:13:10;;;;;;;;;;;25.80;52.60;;;;;;5095005;28;19971;-57
2023/07/29 01:15:48;;;;;;;;;;;25.80;52.60;;;;;;5094364;28;20459;-57
2023/07/29 01:18:20;;;;;;;;;;;25.80;52.60;;;;;;5094892;28;19924;-56
2023/07/29 01:20:48;;;;;;;;;;;25.80;52.60;;;;;;5095134;28;20023;-55
2023/07/29 01:23:15;;;;;;;;;;;25.80;52.60;;;;;;5094715;28;19924;-56
2023/07/29 01:25:43;;;;;;;;;;;25.80;52.60;;;;;;5094935;28;19934;-57
2023/07/29 01:28:09;;;;;;;;;;;25.80;53.20;;;;;;5093626;28;20006;-56
2023/07/29 01:30:40;;;;;;;;;;;25.80;52.60;;;;;;5094541;28;20399;-57
2023/07/29 01:33:18;;;;;;;;;;;25.80;52.60;;;;;;5102989;28;19924;-56
2023/07/29 01:35:47;;;;;;;;;;;25.80;52.60;;;;;;5114893;28;19930;-56
2023/07/29 01:38:18;;;;;;;;;;;25.80;52.60;;;;;;5114975;28;19969;-57
2023/07/29 01:40:45;;;;;;;;;;;25.80;52.50;;;;;;5115150;28;19955;-57
2023/07/29 01:43:12;;;;;;;;;;;25.80;52.60;;;;;;5114536;28;19970;-56
2023/07/29 01:45:40;;;;;;;;;;;25.80;52.50;;;;;;5114498;28;20011;-54
2023/07/29 01:48:07;;;;;;;;;;;25.80;52.50;;;;;;5114126;28;19927;-56
2023/07/29 01:50:34;;;;;;;;;;;25.90;52.60;;;;;;5114722;28;19930;-56
2023/07/29 01:53:01;;;;;;;;;;;25.80;52.50;;;;;;5114079;28;19924;-56
2023/07/29 01:55:29;;;;;;;;;;;25.90;52.60;;;;;;5114590;28;20435;-56
2023/07/29 01:57:56;;;;;;;;;;;25.90;52.60;;;;;;5114965;28;20336;-56
2023/07/29 02:00:23;;;;;;;;;;;25.90;52.60;;;;;;5114516;28;20451;-57
2023/07/29 02:02:50;;;;;;;;;;;25.90;52.60;;;;;;5113885;28;19923;-58
2023/07/29 02:05:17;;;;;;;;;;;25.90;52.60;;;;;;5114436;28;20019;-57
2023/07/29 02:07:44;;;;;;;;;;;25.90;52.60;;;;;;5113581;28;20336;-56
2023/07/29 02:10:11;;;;;;;;;;;25.90;52.60;;;;;;5113836;28;20011;-57
2023/07/29 02:12:38;;;;;;;;;;;25.90;52.60;;;;;;5114011;28;20356;-57
2023/07/29 02:15:05;;;;;;;;;;;25.90;52.60;;;;;;5114356;28;20014;-56
2023/07/29 02:17:32;;;;;;;;;;;25.80;52.50;;;;;;5114114;27;19931;-54
2023/07/29 02:19:59;;;;;;;;;;;25.80;52.50;;;;;;5114096;28;20383;-55
2023/07/29 02:22:26;;;;;;;;;;;25.80;52.60;;;;;;5114008;28;20010;-56
2023/07/29 02:24:53;;;;;;;;;;;25.80;52.60;;;;;;5084334;28;20387;-56
2023/07/29 02:27:20;;;;;;;;;;;25.80;52.60;;;;;;5093578;28;20366;-57
2023/07/29 02:29:47;;;;;;;;;;;25.80;52.60;;;;;;5093319;28;19998;-55
2023/07/29 02:32:14;;;;;;;;;;;25.80;52.60;;;;;;5093432;28;20034;-55
2023/07/29 02:34:42;;;;;;;;;;;25.80;53.20;;;;;;5093180;28;20003;-56
2023/07/29 02:37:09;;;;;;;;;;;25.80;52.60;;;;;;5093561;28;20273;-57
2023/07/29 02:39:36;;;;;;;;;;;25.80;52.70;;;;;;5093267;28;19967;-56
2023/07/29 02:42:03;;;;;;;;;;;25.80;52.70;;;;;;5092643;28;20003;-55
2023/07/29 02:44:31;;;;;;;;;;;25.80;52.70;;;;;;5093738;28;20015;-54
2023/07/29 02:46:57;;;;;;;;;;;25.80;52.70;;;;;;5092830;28;20022;-55
2023/07/29 02:49:25;;;;;;;;;;;25.80;52.70;;;;;;5091892;28;19931;-56
2023/07/29 02:51:51;;;;;;;;;;;25.70;52.60;;;;;;5093567;28;20007;-56
2023/07/29 02:54:18;;;;;;;;;;;25.70;52.70;;;;;;5093339;28;20368;-55
2023/07/29 02:56:49;;;;;;;;;;;25.70;52.70;;;;;;5093121;28;19924;-57
2023/07/29 02:59:16;;;;;;;;;;;25.70;52.70;;;;;;5092579;28;20476;-55
2023/07/29 03:01:43;;;;;;;;;;;25.70;52.70;;;;;;5093468;28;20284;-56
2023/07/29 03:04:12;;;;;;;;;;;25.70;52.70;;;;;;5092416;28;20296;-55
2023/07/29 03:06:39;;;;;;;;;;;25.70;52.70;;;;;;5091376;28;19924;-56
2023/07/29 03:09:07;;;;;;;;;;;25.70;52.70;;;;;;5092867;28;20418;-56
2023/07/29 03:11:34;;;;;;;;;;;25.70;52.70;;;;;;5092735;28;20488;-56
2023/07/29 03:14:01;;;;;;;;;;;25.70;52.70;;;;;;5093669;28;20011;-56
2023/07/29 03:16:28;;;;;;;;;;;25.70;52.80;;;;;;5093229;28;20026;-56
2023/07/29 03:18:55;;;;;;;;;;;25.70;52.70;;;;;;5092732;28;19935;-56
2023/07/29 03:21:23;;;;;;;;;;;25.70;52.70;;;;;;5092533;28;19971;-54
2023/07/29 03:23:49;;;;;;;;;;;25.70;52.80;;;;;;5094403;28;19974;-57
2023/07/29 03:26:16;;;;;;;;;;;25.70;52.80;;;;;;5092881;28;20385;-55
2023/07/29 03:28:43;;;;;;;;;;;25.70;52.70;;;;;;5092575;28;20377;-55
2023/07/29 03:31:10;;;;;;;;;;;25.70;52.70;;;;;;5093082;28;19946;-56
2023/07/29 03:33:38;;;;;;;;;;;25.70;52.80;;;;;;5091551;28;19924;-56
2023/07/29 03:36:05;;;;;;;;;;;25.70;52.70;;;;;;5092168;28;19928;-55
2023/07/29 03:38:35;;;;;;;;;;;25.70;52.70;;;;;;5101604;28;19928;-56
2023/07/29 03:41:02;;;;;;;;;;;25.70;52.70;;;;;;5093102;28;19931;-54
2023/07/29 03:43:30;;;;;;;;;;;25.70;52.70;;;;;;5093011;28;19978;-56
2023/07/29 03:45:57;;;;;;;;;;;25.70;52.60;;;;;;5092441;28;20005;-57
2023/07/29 03:48:24;;;;;;;;;;;25.80;52.60;;;;;;5092870;28;19924;-55
2023/07/29 03:50:51;;;;;;;;;;;25.80;52.60;;;;;;5092119;28;20015;-57
2023/07/29 03:53:18;;;;;;;;;;;25.80;52.60;;;;;;5092352;28;19930;-55
2023/07/29 03:55:45;;;;;;;;;;;25.80;52.50;;;;;;5093289;28;19924;-54
2023/07/29 03:58:12;;;;;;;;;;;25.80;52.50;;;;;;5092657;28;20027;-56
2023/07/29 04:00:39;;;;;;;;;;;25.90;52.50;;;;;;5091433;28;20018;-56
2023/07/29 04:03:06;;;;;;;;;;;25.80;52.40;;;;;;5091978;28;19924;-56
2023/07/29 04:05:33;;;;;;;;;;;25.90;52.40;;;;;;5071713;28;20463;-57
2023/07/29 04:08:00;;;;;;;;;;;25.90;52.30;;;;;;5073007;28;19948;-56
2023/07/29 04:10:28;;;;;;;;;;;25.90;52.90;;;;;;5091560;28;20003;-55
2023/07/29 04:12:55;;;;;;;;;;;25.90;52.30;;;;;;5096379;28;19924;-56
2023/07/29 04:15:22;;;;;;;;;;;25.90;52.20;;;;;;5096134;28;19966;-56
2023/07/29 04:17:48;;;;;;;;;;;26.00;52.30;;;;;;5095938;28;19977;-56
2023/07/29 04:20:15;;;;;;;;;;;26.00;52.20;;;;;;5095511;28;19931;-55
2023/07/29 04:22:43;;;;;;;;;;;26.00;52.20;;;;;;5096139;28;20026;-55
2023/07/29 04:25:10;;;;;;;;;;;26.00;52.20;;;;;;5095981;28;19924;-56
2023/07/29 04:27:37;;;;;;;;;;;26.00;52.10;;;;;;5096039;28;19924;-56
2023/07/29 04:30:04;;;;;;;;;;;26.00;52.10;;;;;;5110998;28;20022;-55
2023/07/29 04:32:31;;;;;;;;;;;26.00;52.10;;;;;;5116533;28;19924;-56
2023/07/29 04:34:58;;;;;;;;;;;26.00;52.10;;;;;;5115577;28;19927;-56
2023/07/29 04:37:25;;;;;;;;;;;26.00;52.10;;;;;;5116161;28;20018;-55
2023/07/29 04:39:52;;;;;;;;;;;25.90;52.20;;;;;;5115559;28;19963;-56
2023/07/29 04:42:19;;;;;;;;;;;25.80;52.30;;;;;;5116401;28;19951;-56
2023/07/29 04:44:46;;;;;;;;;;;25.70;52.60;;;;;;5115611;28;19924;-56
2023/07/29 04:47:14;;;;;;;;;;;25.40;52.80;;;;;;5115816;28;19924;-56
2023/07/29 04:49:41;;;;;;;;;;;25.20;52.90;;;;;;5115816;28;19951;-56
2023/07/29 04:52:08;;;;;;;;;;;24.90;51.80;;;;;;5115851;28;19959;-57
2023/07/29 04:54:35;;;;;;;;;;;24.60;50.50;;;;;;5115566;28;19923;-55
2023/07/29 04:57:02;;;;;;;;;;;24.30;49.90;;;;;;5115714;28;19924;-55
2023/07/29 04:59:30;;;;;;;;;;;24.00;48.90;;;;;;5115561;28;19978;-56
2023/07/29 05:01:57;;;;;;;;;;;23.60;48.40;;;;;;5115919;28;19931;-56
2023/07/29 05:04:24;;;;;;;;;;;23.40;48.00;;;;;;5115783;28;20387;-55
2023/07/29 05:06:51;;;;;;;;;;;23.10;48.40;;;;;;5099381;28;19946;-55
2023/07/29 05:09:19;;;;;;;;;;;22.80;48.30;;;;;;5094556;28;19971;-55
2023/07/29 05:11:47;;;;;;;;;;;22.50;48.30;;;;;;5095156;28;19924;-55
2023/07/29 05:14:14;;;;;;;;;;;22.30;48.20;;;;;;5095364;28;20002;-54
2023/07/29 05:16:42;;;;;;;;;;;22.10;48.00;;;;;;5094778;28;19931;-56
2023/07/29 05:19:09;;;;;;;;;;;21.80;48.60;;;;;;5099897;28;19976;-54
2023/07/29 05:21:37;;;;;;;;;;;21.60;49.30;;;;;;5115920;28;20326;-55
2023/07/29 05:24:04;;;;;;;;;;;21.40;49.60;;;;;;5114182;28;19928;-55
2023/07/29 05:26:31;;;;;;;;;;;21.30;50.40;;;;;;5102302;28;19924;-57
2023/07/29 05:28:58;;;;;;;;;;;21.20;50.50;;;;;;5094744;28;20373;-54
2023/07/29 05:31:25;;;;;;;;;;;21.00;51.20;;;;;;5094443;28;20027;-55
2023/07/29 05:33:52;;;;;;;;;;;20.90;51.60;;;;;;5095011;28;19924;-56
2023/07/29 05:36:19;;;;;;;;;;;20.80;51.80;;;;;;5093005;28;19930;-55
2023/07/29 05:38:46;;;;;;;;;;;20.80;52.30;;;;;;5093927;28;19924;-55
2023/07/29 05:41:13;;;;;;;;;;;20.70;52.70;;;;;;5115447;28;20322;-55
2023/07/29 05:43:40;;;;;;;;;;;20.70;52.90;;;;;;5105347;28;20384;-55
2023/07/29 05:46:07;;;;;;;;;;;20.60;53.40;;;;;;5094781;28;19970;-55
2023/07/29 05:48:34;;;;;;;;;;;20.60;54.00;;;;;;5094443;28;19924;-56
2023/07/29 05:51:01;;;;;;;;;;;20.60;53.80;;;;;;5094765;28;19971;-55
2023/07/29 05:53:28;;;;;;;;;;;20.60;54.10;;;;;;5094249;28;19924;-55
2023/07/29 05:55:55;;;;;;;;;;;20.60;54.40;;;;;;5094666;28;19928;-55
2023/07/29 05:58:22;;;;;;;;;;;20.60;54.50;;;;;;5094513;28;19981;-55
2023/07/29 06:00:51;;;;;;;;;;;20.60;54.60;;;;;;5094261;28;19924;-55
2023/07/29 06:03:18;;;;;;;;;;;20.60;54.90;;;;;;5094457;28;19993;-57
2023/07/29 06:05:45;;;;;;;;;;;20.60;54.80;;;;;;5100057;28;20006;-54
2023/07/29 06:08:12;;;;;;;;;;;20.60;54.70;;;;;;5114402;28;19930;-55
2023/07/29 06:10:39;;;;;;;;;;;20.60;55.00;;;;;;5113844;28;19967;-55
2023/07/29 06:13:07;;;;;;;;;;;20.60;55.40;;;;;;5114838;28;20010;-55
2023/07/29 06:15:34;;;;;;;;;;;20.60;55.30;;;;;;5114740;28;20401;-56
2023/07/29 06:18:01;;;;;;;;;;;20.50;55.20;;;;;;5110641;28;19932;-55
2023/07/29 06:20:28;;;;;;;;;;;20.60;55.40;;;;;;5094235;28;20014;-56
2023/07/29 06:22:55;;;;;;;;;;;20.60;55.30;;;;;;5094309;28;19936;-51
2023/07/29 06:25:22;;;;;;;;;;;20.60;54.70;;;;;;5094259;28;20287;-56
2023/07/29 06:27:49;;;;;;;;;;;20.60;55.00;;;;;;5093811;28;19924;-54
2023/07/29 06:30:16;;;;;;;;;;;20.60;54.90;;;;;;5093978;28;19989;-55
2023/07/29 06:32:43;;;;;;;;;;;20.50;55.10;;;;;;5094259;28;19963;-55
2023/07/29 06:35:10;;;;;;;;;;;20.60;55.00;;;;;;5092580;28;19924;-54
2023/07/29 06:37:37;;;;;;;;;;;20.50;54.80;;;;;;5093926;28;20447;-55
2023/07/29 06:40:05;;;;;;;;;;;20.50;55.10;;;;;;5092273;28;19960;-54
2023/07/29 06:42:32;;;;;;;;;;;20.50;55.20;;;;;;5094219;28;19969;-55
2023/07/29 06:44:59;;;;;;;;;;;20.50;55.30;;;;;;5092376;28;19928;-53
2023/07/29 06:47:26;;;;;;;;;;;20.40;55.30;;;;;;5093646;28;19931;-55
2023/07/29 06:49:54;;;;;;;;;;;20.40;55.20;;;;;;5089365;28;19947;-54
2023/07/29 06:52:20;;;;;;;;;;;20.40;55.40;;;;;;5092719;28;19964;-55
2023/07/29 06:54:47;;;;;;;;;;;20.40;55.40;;;;;;5078314;28;19977;-56
2023/07/29 06:57:14;;;;;;;;;;;20.40;55.40;;;;;;5092420;28;19985;-55
2023/07/29 06:59:41;;;;;;;;;;;20.40;55.20;;;;;;5093201;28;19931;-55
2023/07/29 07:02:09;;;;;;;;;;;20.40;55.30;;;;;;5093513;28;19925;-55
2023/07/29 07:04:36;;;;;;;;;;;20.50;55.70;;;;;;5093055;28;19924;-55
2023/07/29 07:07:03;;;;;;;;;;;20.50;55.80;;;;;;5092709;28;20412;-54
2023/07/29 07:09:29;;;;;;;;;;;20.50;56.30;;;;;;5091690;28;19924;-57
2023/07/29 07:11:56;;;;;;;;;;;20.40;56.90;;;;;;5086857;28;20015;-57
2023/07/29 07:14:24;;;;;;;;;;;20.40;56.50;;;;;;5078876;28;20017;-54
2023/07/29 07:16:51;;;;;;;;;;;20.40;57.10;;;;;;5093364;28;20019;-56
2023/07/29 07:19:18;;;;;;;;;;;20.40;57.20;;;;;;5093297;28;20049;-52
2023/07/29 07:21:45;;;;;;;;;;;20.40;58.50;;;;;;5093382;28;20030;-56
2023/07/29 07:24:12;;;;;;;;;;;20.40;57.30;;;;;;5091736;28;19924;-54
2023/07/29 07:26:39;;;;;;;;;;;20.40;59.20;;;;;;5111758;28;19924;-55
2023/07/29 07:29:06;;;;;;;;;;;20.40;59.40;;;;;;5113497;28;19930;-56
2023/07/29 07:31:34;;;;;;;;;;;20.50;59.00;;;;;;5112277;28;19990;-58
2023/07/29 07:34:02;;;;;;;;;;;20.50;59.00;;;;;;5091856;28;19924;-55
2023/07/29 07:36:30;;;;;;;;;;;20.50;58.70;;;;;;5090504;28;19925;-55
2023/07/29 07:38:57;;;;;;;;;;;20.50;58.70;;;;;;5086956;28;20016;-55
2023/07/29 07:41:24;;;;;;;;;;;20.50;59.50;;;;;;5088440;28;19928;-56
2023/07/29 07:43:51;;;;;;;;;;;20.50;58.90;;;;;;5092981;28;20441;-55
2023/07/29 07:46:18;;;;;;;;;;;20.50;58.30;;;;;;5094877;28;19924;-54
2023/07/29 07:48:45;;;;;;;;;;;20.50;59.10;;;;;;5096537;28;19971;-55
2023/07/29 07:51:13;;;;;;;;;;;20.60;59.50;;;;;;5110391;28;19969;-55
2023/07/29 07:53:40;;;;;;;;;;;20.50;59.30;;;;;;5117267;28;20345;-52
2023/07/29 07:56:07;;;;;;;;;;;20.60;58.00;;;;;;5101957;28;19970;-54
2023/07/29 07:58:34;;;;;;;;;;;20.60;58.70;;;;;;5095648;28;19932;-54
2023/07/29 08:01:02;;;;;;;;;;;20.60;58.90;;;;;;5094673;28;19976;-55
2023/07/29 08:03:31;;;;;;;;;;;20.60;58.80;;;;;;5084062;28;19932;-55
2023/07/29 08:05:58;;;;;;;;;;;20.60;58.90;;;;;;5095416;28;19924;-55
2023/07/29 08:08:25;;;;;;;;;;;20.60;58.20;;;;;;5096598;28;20022;-54
2023/07/29 08:10:53;;;;;;;;;;;20.60;60.00;;;;;;5085348;28;19924;-55
2023/07/29 08:13:20;;;;;;;;;;;20.60;59.40;;;;;;5096534;28;20011;-55
2023/07/29 08:15:48;;;;;;;;;;;20.60;59.00;;;;;;5081988;28;19932;-54
2023/07/29 08:18:15;;;;;;;;;;;20.60;59.30;;;;;;5085491;28;19936;-55
2023/07/29 08:20:57;;;;;;;;;;;20.70;59.10;;;;;;5097543;28;19928;-56
2023/07/29 08:23:28;;;;;;;;;;;20.70;60.20;;;;;;5074925;28;20377;-55
2023/07/29 08:26:00;;;;;;;;;;;20.80;59.80;;;;;;5084917;28;20418;-55
2023/07/29 08:28:29;;;;;;;;;;;20.80;59.30;;;;;;5095593;28;19924;-55
2023/07/29 08:30:56;;;;;;;;;;;20.80;59.60;;;;;;5096569;28;19969;-55
2023/07/29 08:33:23;;;;;;;;;;;20.90;58.90;;;;;;5096377;28;19924;-55
2023/07/29 08:35:50;;;;;;;;;;;20.90;58.50;;;;;;5096195;28;19924;-54
2023/07/29 08:38:17;;;;;;;;;;;20.90;59.50;;;;;;5095956;28;19963;-55
2023/07/29 08:40:58;;;;;;;;;;;20.90;59.40;;;;;;5095898;28;19924;-54
2023/07/29 08:43:32;;;;;;;;;;;21.00;58.70;;;;;;5095578;28;19979;-53
2023/07/29 08:46:00;;;;;;;;;;;21.00;60.00;;;;;;5095872;28;19969;-55
2023/07/29 08:48:31;;;;;;;;;;;21.00;58.70;;;;;;5113368;28;19993;-54
2023/07/29 08:50:59;;;;;;;;;;;21.00;59.00;;;;;;5110068;28;19928;-55
2023/07/29 08:53:27;;;;;;;;;;;21.00;58.50;;;;;;5094140;28;20010;-54
2023/07/29 08:55:55;;;;;;;;;;;21.00;58.40;;;;;;5095499;28;20443;-55
2023/07/29 08:58:23;;;;;;;;;;;21.10;58.60;;;;;;5094780;28;19924;-54
2023/07/29 09:00:50;;;;;;;;;;;21.10;58.50;;;;;;5095765;28;20345;-55
2023/07/29 09:03:17;;;;;;;;;;;21.10;58.70;;;;;;5096143;28;20371;-52
2023/07/29 09:05:45;;;;;;;;;;;21.10;58.60;;;;;;5095457;28;19924;-54
2023/07/29 09:08:13;;;;;;;;;;;21.10;58.60;;;;;;5095389;28;19991;-53
2023/07/29 09:10:40;;;;;;;;;;;21.20;58.40;;;;;;5098602;28;19934;-55
2023/07/29 09:13:07;;;;;;;;;;;21.20;58.50;;;;;;5116155;28;19977;-54
2023/07/29 09:15:35;;;;;;;;;;;21.20;58.60;;;;;;5115632;28;20346;-54
2023/07/29 09:18:09;;;;;;;;;;;21.20;58.10;;;;;;5115586;28;19966;-55
2023/07/29 09:20:36;;;;;;;;;;;21.20;58.30;;;;;;5115557;28;19923;-52
2023/07/29 09:23:03;;;;;;;;;;;21.20;58.50;;;;;;5115492;28;20295;-55
2023/07/29 09:25:30;;;;;;;;;;;21.20;58.60;;;;;;5108368;27;19931;-53
2023/07/29 09:28:00;;;;;;;;;;;21.20;58.10;;;;;;5115680;28;19923;-53
2023/07/29 09:30:28;;;;;;;;;;;21.20;58.60;;;;;;5095499;28;19985;-54
2023/07/29 09:32:56;;;;;;;;;;;21.20;57.80;;;;;;5093514;28;19959;-55
2023/07/29 09:35:24;;;;;;;;;;;21.20;57.90;;;;;;5095480;28;19997;-54
2023/07/29 09:37:51;;;;;;;;;;;21.30;57.80;;;;;;5115777;28;19924;-56
2023/07/29 09:40:18;;;;;;;;;;;21.20;57.60;;;;;;5114214;28;19924;-54
2023/07/29 09:42:54;;;;;;;;;;;21.30;57.70;;;;;;5115560;28;19927;-54
2023/07/29 09:45:22;;;;;;;;;;;21.30;58.20;;;;;;5115270;28;20375;-56
2023/07/29 09:47:49;;;;;;;;;;;21.20;57.60;;;;;;5104749;28;19924;-55
2023/07/29 09:50:16;;;;;;;;;;;21.20;57.50;;;;;;5094278;28;20304;-55
2023/07/29 09:52:43;;;;;;;;;;;21.30;58.50;;;;;;5095309;28;19924;-51
2023/07/29 09:55:17;;;;;;;;;;;21.30;57.80;;;;;;5093765;28;20438;-53
2023/07/29 09:57:44;;;;;;;;;;;21.30;57.60;;;;;;5094015;28;19928;-56
2023/07/29 10:00:12;;;;;;;;;;;21.30;57.00;;;;;;5096622;28;19924;-56
2023/07/29 10:02:39;;;;;;;;;;;21.20;57.40;;;;;;5114292;28;19959;-54
2023/07/29 10:05:08;;;;;;;;;;;21.30;57.30;;;;;;5114502;28;20306;-55
2023/07/29 10:07:38;;;;;;;;;;;21.30;56.40;;;;;;5114216;28;19969;-54
2023/07/29 10:10:06;;;;;;;;;;;21.20;57.60;;;;;;5114493;28;19967;-52
2023/07/29 10:12:34;;;;;;;;;;;21.20;57.20;;;;;;5114868;28;19923;-53
2023/07/29 10:15:03;;;;;;;;;;;21.10;57.20;;;;;;5114088;28;20018;-51
2023/07/29 10:17:32;;;;;;;;;;;21.10;56.90;;;;;;5114311;28;20361;-53
2023/07/29 10:19:59;;;;;;;;;;;21.10;57.20;;;;;;5104405;28;20385;-53
2023/07/29 10:22:32;;;;;;;;;;;21.10;57.70;;;;;;5093489;28;20340;-55
2023/07/29 10:25:02;;;;;;;;;;;21.00;56.80;;;;;;5093237;28;19978;-57
2023/07/29 10:27:30;;;;;;;;;;;21.00;55.50;;;;;;5092852;28;20338;-53
2023/07/29 10:29:57;;;;;;;;;;;21.00;57.20;;;;;;5093315;28;19982;-50
2023/07/29 10:32:26;;;;;;;;;;;20.90;55.60;;;;;;5093950;28;19971;-51
2023/07/29 10:34:53;;;;;;;;;;;20.90;57.70;;;;;;5093560;28;19930;-55
2023/07/29 10:37:22;;;;;;;;;;;20.90;56.70;;;;;;5093853;28;20011;-52
2023/07/29 10:39:53;;;;;;;;;;;20.80;56.90;;;;;;5093313;28;20296;-53
2023/07/29 10:42:21;;;;;;;;;;;20.80;57.20;;;;;;5087166;28;20326;-56
2023/07/29 10:44:54;;;;;;;;;;;20.80;58.00;;;;;;5093426;28;19925;-55
2023/07/29 10:47:25;;;;;;;;;;;20.80;58.20;;;;;;5093849;28;19924;-50
2023/07/29 10:49:54;;;;;;;;;;;20.80;58.20;;;;;;5093736;28;20022;-51
2023/07/29 10:52:39;;;;;;;;;;;20.70;57.30;;;;;;5093695;28;19930;-55
2023/07/29 10:55:23;;;;;;;;;;;20.80;56.20;;;;;;5092690;28;19928;-56
2023/07/29 10:57:50;;;;;;;;;;;20.80;57.00;;;;;;5093065;28;20384;-55
2023/07/29 11:00:19;;;;;;;;;;;20.80;56.50;;;;;;5093036;28;20447;-53
2023/07/29 11:02:56;;;;;;;;;;;20.80;56.50;;;;;;5093875;28;19981;-54
2023/07/29 11:05:23;;;;;;;;;;;20.80;58.00;;;;;;5092947;28;19931;-52
2023/07/29 11:07:50;;;;;;;;;;;20.80;57.00;;;;;;5092957;28;19924;-51
2023/07/29 11:10:17;;;;;;;;;;;20.80;56.70;;;;;;5087044;28;19928;-53
2023/07/29 11:12:45;;;;;;;;;;;20.90;57.00;;;;;;5084896;28;20023;-51
2023/07/29 11:15:28;;;;;;;;;;;20.90;56.60;;;;;;5093209;28;20015;-51
2023/07/29 11:17:56;;;;;;;;;;;20.90;56.60;;;;;;5091081;28;20019;-52
2023/07/29 11:20:25;;;;;;;;;;;20.90;57.80;;;;;;5071095;28;19925;-55
2023/07/29 11:22:56;;;;;;;;;;;20.90;57.30;;;;;;5085400;28;19925;-51
2023/07/29 11:25:24;;;;;;;;;;;21.00;56.90;;;;;;5091768;28;19975;-51
2023/07/29 11:27:52;;;;;;;;;;;20.90;55.90;;;;;;5083358;28;19974;-55
2023/07/29 11:30:19;;;;;;;;;;;21.00;56.10;;;;;;5073693;28;20403;-54
2023/07/29 11:32:47;;;;;;;;;;;21.00;55.90;;;;;;5078421;28;19964;-51
2023/07/29 11:35:15;;;;;;;;;;;21.00;55.90;;;;;;5079449;28;20368;-55
2023/07/29 11:37:44;;;;;;;;;;;21.00;57.70;;;;;;5088721;28;19981;-51
2023/07/29 11:40:16;;;;;;;;;;;20.90;56.50;;;;;;5092505;28;19928;-55
2023/07/29 11:42:43;;;;;;;;;;;20.90;56.30;;;;;;5100423;28;19931;-50
2023/07/29 11:45:11;;;;;;;;;;;20.90;56.60;;;;;;5082228;28;19955;-55
2023/07/29 11:47:38;;;;;;;;;;;20.90;57.50;;;;;;5084529;28;20026;-53
2023/07/29 11:50:06;;;;;;;;;;;20.90;56.40;;;;;;5085016;28;20011;-55
2023/07/29 11:52:33;;;;;;;;;;;20.90;57.80;;;;;;5082521;28;19924;-54
2023/07/29 11:55:02;;;;;;;;;;;20.90;56.10;;;;;;5079088;28;19967;-53
2023/07/29 11:57:29;;;;;;;;;;;20.90;55.60;;;;;;5083287;28;20019;-51
2023/07/29 11:59:57;;;;;;;;;;;21.00;56.40;;;;;;5075972;28;20038;-53
2023/07/29 12:02:25;;;;;;;;;;;21.00;57.30;;;;;;5075932;28;20027;-53
2023/07/29 12:04:53;;;;;;;;;;;21.00;56.00;;;;;;5077846;28;19928;-50
2023/07/29 12:07:20;;;;;;;;;;;20.90;57.60;;;;;;5082707;28;20006;-55
2023/07/29 12:09:47;;;;;;;;;;;20.90;56.10;;;;;;5082021;28;19928;-53
2023/07/29 12:12:15;;;;;;;;;;;20.90;56.30;;;;;;5073250;28;19963;-55
2023/07/29 12:14:46;;;;;;;;;;;20.90;56.30;;;;;;5080403;28;19960;-55
2023/07/29 12:17:13;;;;;;;;;;;20.90;57.00;;;;;;5081134;28;20384;-52
2023/07/29 12:19:41;;;;;;;;;;;20.90;57.10;;;;;;5091593;28;19924;-50
2023/07/29 12:22:08;;;;;;;;;;;20.90;56.70;;;;;;5088216;28;19928;-53
2023/07/29 12:24:36;;;;;;;;;;;20.90;56.90;;;;;;5078209;28;19924;-55
2023/07/29 12:27:03;;;;;;;;;;;20.90;56.80;;;;;;5072523;28;19924;-53
2023/07/29 12:29:30;;;;;;;;;;;21.00;55.90;;;;;;5074263;28;22148;-53
2023/07/29 12:31:59;;;;;;;;;;;20.90;56.70;;;;;;5075360;28;19989;-54
2023/07/29 12:34:28;;;;;;;;;;;21.00;56.50;;;;;;5083960;28;20285;-56
2023/07/29 12:36:56;;;;;;;;;;;21.00;56.20;;;;;;5084221;28;20369;-53
2023/07/29 12:39:26;;;;;;;;;;;21.00;56.20;;;;;;5078659;28;20372;-54
2023/07/29 12:41:54;;;;;;;;;;;21.00;56.70;;;;;;5078313;28;19959;-55
2023/07/29 12:44:22;;;;;;;;;;;21.00;58.10;;;;;;5078163;28;19924;-53
2023/07/29 12:46:49;;;;;;;;;;;20.90;56.30;;;;;;5077623;28;19924;-53
2023/07/29 12:49:17;;;;;;;;;;;21.00;56.90;;;;;;5081391;28;19942;-51
2023/07/29 12:51:43;;;;;;;;;;;21.00;56.10;;;;;;5075022;28;19930;-52
2023/07/29 12:54:10;;;;;;;;;;;21.00;56.30;;;;;;5076087;28;20007;-53
2023/07/29 12:56:38;;;;;;;;;;;21.10;56.30;;;;;;5078051;28;20415;-51
2023/07/29 12:59:05;;;;;;;;;;;21.10;56.90;;;;;;5091084;28;20031;-54
2023/07/29 13:01:32;;;;;;;;;;;21.10;57.70;;;;;;5095278;28;20400;-51
2023/07/29 13:03:59;;;;;;;;;;;21.10;56.90;;;;;;5085839;28;19964;-53
2023/07/29 13:06:26;;;;;;;;;;;21.20;57.30;;;;;;5075556;28;19925;-55
2023/07/29 13:08:56;;;;;;;;;;;21.20;56.90;;;;;;5092450;28;19924;-54
2023/07/29 13:11:23;;;;;;;;;;;21.20;57.10;;;;;;5095189;28;19924;-55
2023/07/29 13:13:50;;;;;;;;;;;21.20;58.00;;;;;;5095568;28;19970;-52
2023/07/29 13:16:17;;;;;;;;;;;21.30;57.30;;;;;;5095086;28;19928;-52
2023/07/29 13:18:44;;;;;;;;;;;21.30;57.80;;;;;;5095654;28;19931;-51
2023/07/29 13:21:12;;;;;;;;;;;21.30;57.40;;;;;;5095783;28;19986;-53
2023/07/29 13:23:39;;;;;;;;;;;21.30;57.30;;;;;;5094904;28;20010;-53
2023/07/29 13:26:06;;;;;;;;;;;21.40;57.30;;;;;;5094760;28;19966;-52
2023/07/29 13:28:33;;;;;;;;;;;21.40;57.40;;;;;;5076120;28;20011;-53
2023/07/29 13:31:01;;;;;;;;;;;21.40;57.60;;;;;;5073127;28;19947;-50
2023/07/29 13:33:33;;;;;;;;;;;21.40;57.80;;;;;;5087485;28;20346;-51
2023/07/29 13:36:02;;;;;;;;;;;21.40;57.30;;;;;;5105640;28;19924;-54
2023/07/29 13:38:30;;;;;;;;;;;21.40;57.50;;;;;;5115374;28;19924;-51
2023/07/29 13:40:57;;;;;;;;;;;21.50;57.80;;;;;;5114532;28;19924;-51
2023/07/29 13:43:24;;;;;;;;;;;21.50;57.50;;;;;;5114683;28;19985;-54
2023/07/29 13:45:51;;;;;;;;;;;21.50;57.50;;;;;;5114748;28;20012;-50
2023/07/29 13:48:18;;;;;;;;;;;21.50;57.30;;;;;;5114926;28;19924;-55
2023/07/29 13:50:45;;;;;;;;;;;21.50;57.50;;;;;;5114696;28;19969;-53
2023/07/29 13:53:12;;;;;;;;;;;21.50;57.20;;;;;;5101071;28;19924;-52
2023/07/29 13:55:40;;;;;;;;;;;21.60;57.20;;;;;;5093818;28;19939;-55
2023/07/29 13:58:07;;;;;;;;;;;21.60;56.90;;;;;;5094043;28;19966;-55
2023/07/29 14:00:33;;;;;;;;;;;21.60;56.90;;;;;;5093990;28;19931;-50
2023/07/29 14:03:00;;;;;;;;;;;21.60;56.90;;;;;;5093352;28;20010;-54
2023/07/29 14:05:27;;;;;;;;;;;21.60;62.50;;;;;;5094836;28;19928;-49
2023/07/29 14:07:55;;;;;;;;;;;21.80;69.90;;;;;;5094412;28;20010;-53
2023/07/29 14:10:22;;;;;;;;;;;22.00;73.00;;;;;;5094322;28;19971;-54
2023/07/29 14:12:49;;;;;;;;;;;22.30;73.90;;;;;;5093013;28;20031;-56
2023/07/29 14:15:16;;;;;;;;;;;22.60;74.00;;;;;;5114109;28;19981;-55
2023/07/29 14:17:43;;;;;;;;;;;22.90;74.30;;;;;;5113730;28;20407;-53
2023/07/29 14:20:10;;;;;;;;;;;23.10;73.90;;;;;;5114205;28;19924;-54